ROMMA est une association bénévole à but non lucratif. Votre soutien est indispensable : ADHERER à ROMMA ou FAIRE un DON

Granges-lès-Beaumont - (26, Drôme)

Drôme des Collines (155 m)   Longitude: 04°58'E   Latitude: 45°03'N Station partenaire n°123
 

Détail journalier du     <<     >>

Température Precipitation Humidité Pression Vent Dir Rafale Dir. rafale Ensol.
Heure (°C) (mm) (%) (hPa) (km/h) (km/h) (min)
01:00 3.008810329NNO18N0
02:00 3.1088103212NNE21NNE0
03:00 3.1088103213NNE21NNE0
04:00 3.2088103214NNE26NNE0
05:00 3.4087103320NNE29NNE0
06:00 3.5085103319N32N0
07:00 2.9087103314NNO29NNO0
08:00 2.5087103412NNE26NNO0
09:00 3.5086103513N27NNE0
10:00 3.8083103617NNE34NNE0
11:00 5.0082103616NE31NE0
12:00 7.1073103622NNE35NE30
13:00 8.4068103524NE42NE60
14:00 8.7065103423NNE40NNE60
15:00 8.9060103419N35N60
16:00 7.7063103421N39NNE60
17:00 6.8069103419N32N50
18:00 5.7074103311N24NNO30
19:00 4.7076103412N23N0
20:00 3.9078103413NNE21NNE0
21:00 3.4079103410N21N0
22:00 2.7081103412NNO23NNO0
23:00 2.8083103413N24NE0
minuit 2.0084103411NNO19N0

Graphique du 12-02-2019

 

Serveur OMMA